sensor_id;sensor_type;location;lat;lon;timestamp;temperature;humidity
15967;DHT22;15175;48.154;11.534;2023-11-18T00:01:10;5.70;99.90
15967;DHT22;15175;48.154;11.534;2023-11-18T00:07:13;5.70;99.90
15967;DHT22;15175;48.154;11.534;2023-11-18T00:13:15;5.70;99.90
15967;DHT22;15175;48.154;11.534;2023-11-18T00:19:18;5.70;99.90
15967;DHT22;15175;48.154;11.534;2023-11-18T00:25:21;5.70;99.90
15967;DHT22;15175;48.154;11.534;2023-11-18T00:31:23;5.70;99.90
15967;DHT22;15175;48.154;11.534;2023-11-18T00:37:27;5.70;99.90
15967;DHT22;15175;48.154;11.534;2023-11-18T00:43:29;5.70;99.90
15967;DHT22;15175;48.154;11.534;2023-11-18T00:49:32;5.60;99.90
15967;DHT22;15175;48.154;11.534;2023-11-18T00:55:36;5.60;99.90
15967;DHT22;15175;48.154;11.534;2023-11-18T01:01:38;5.50;99.90
15967;DHT22;15175;48.154;11.534;2023-11-18T01:07:41;5.50;99.90
15967;DHT22;15175;48.154;11.534;2023-11-18T01:13:45;5.50;99.90
15967;DHT22;15175;48.154;11.534;2023-11-18T01:19:47;5.50;99.90
15967;DHT22;15175;48.154;11.534;2023-11-18T01:25:50;5.50;99.90
15967;DHT22;15175;48.154;11.534;2023-11-18T01:31:53;5.50;99.90
15967;DHT22;15175;48.154;11.534;2023-11-18T01:37:56;5.50;99.90
15967;DHT22;15175;48.154;11.534;2023-11-18T01:43:59;5.50;99.90
15967;DHT22;15175;48.154;11.534;2023-11-18T01:50:03;5.50;99.90
15967;DHT22;15175;48.154;11.534;2023-11-18T01:56:08;5.50;99.90
15967;DHT22;15175;48.154;11.534;2023-11-18T02:02:12;5.50;99.90
15967;DHT22;15175;48.154;11.534;2023-11-18T02:08:16;5.40;99.90
15967;DHT22;15175;48.154;11.534;2023-11-18T02:14:20;5.40;99.90
15967;DHT22;15175;48.154;11.534;2023-11-18T02:20:22;5.50;99.90
15967;DHT22;15175;48.154;11.534;2023-11-18T02:26:26;5.50;99.90
15967;DHT22;15175;48.154;11.534;2023-11-18T02:32:34;5.50;99.90
15967;DHT22;15175;48.154;11.534;2023-11-18T02:38:42;5.50;99.90
15967;DHT22;15175;48.154;11.534;2023-11-18T02:44:48;5.50;99.90
15967;DHT22;15175;48.154;11.534;2023-11-18T02:50:59;5.50;99.90
15967;DHT22;15175;48.154;11.534;2023-11-18T02:57:02;5.50;99.90
15967;DHT22;15175;48.154;11.534;2023-11-18T03:03:06;5.50;99.90
15967;DHT22;15175;48.154;11.534;2023-11-18T03:09:08;5.50;99.90
15967;DHT22;15175;48.154;11.534;2023-11-18T03:15:11;5.50;99.90
15967;DHT22;15175;48.154;11.534;2023-11-18T03:21:15;5.50;99.90
15967;DHT22;15175;48.154;11.534;2023-11-18T03:27:17;5.50;99.90
15967;DHT22;15175;48.154;11.534;2023-11-18T03:33:19;5.50;99.90
15967;DHT22;15175;48.154;11.534;2023-11-18T03:39:22;5.50;99.90
15967;DHT22;15175;48.154;11.534;2023-11-18T03:45:25;5.50;99.90
15967;DHT22;15175;48.154;11.534;2023-11-18T03:51:27;5.50;99.90
15967;DHT22;15175;48.154;11.534;2023-11-18T03:57:31;5.50;99.90
15967;DHT22;15175;48.154;11.534;2023-11-18T04:03:33;5.50;99.90
15967;DHT22;15175;48.154;11.534;2023-11-18T04:09:37;5.40;99.90
15967;DHT22;15175;48.154;11.534;2023-11-18T04:15:43;5.40;99.90
15967;DHT22;15175;48.154;11.534;2023-11-18T04:21:47;5.50;99.90
15967;DHT22;15175;48.154;11.534;2023-11-18T04:27:50;5.40;99.90
15967;DHT22;15175;48.154;11.534;2023-11-18T04:33:54;5.40;99.90
15967;DHT22;15175;48.154;11.534;2023-11-18T04:39:56;5.40;99.90
15967;DHT22;15175;48.154;11.534;2023-11-18T04:45:59;5.50;99.90
15967;DHT22;15175;48.154;11.534;2023-11-18T04:52:03;5.50;99.90
15967;DHT22;15175;48.154;11.534;2023-11-18T04:58:07;5.50;99.90
15967;DHT22;15175;48.154;11.534;2023-11-18T05:04:10;5.50;99.90
15967;DHT22;15175;48.154;11.534;2023-11-18T05:10:13;5.50;99.90
15967;DHT22;15175;48.154;11.534;2023-11-18T05:16:15;5.60;99.90
15967;DHT22;15175;48.154;11.534;2023-11-18T05:22:18;5.50;99.90
15967;DHT22;15175;48.154;11.534;2023-11-18T05:28:22;5.50;99.90
15967;DHT22;15175;48.154;11.534;2023-11-18T05:34:25;5.50;99.90
15967;DHT22;15175;48.154;11.534;2023-11-18T05:40:27;5.50;99.90
15967;DHT22;15175;48.154;11.534;2023-11-18T05:46:32;5.50;99.90
15967;DHT22;15175;48.154;11.534;2023-11-18T05:52:34;5.50;99.90
15967;DHT22;15175;48.154;11.534;2023-11-18T05:58:36;5.50;99.90
15967;DHT22;15175;48.154;11.534;2023-11-18T06:04:40;5.50;99.90
15967;DHT22;15175;48.154;11.534;2023-11-18T06:10:43;5.50;99.90
15967;DHT22;15175;48.154;11.534;2023-11-18T06:16:47;5.50;99.90
15967;DHT22;15175;48.154;11.534;2023-11-18T06:22:52;5.50;99.90
15967;DHT22;15175;48.154;11.534;2023-11-18T06:28:54;5.50;99.90
15967;DHT22;15175;48.154;11.534;2023-11-18T06:34:56;5.50;99.90
15967;DHT22;15175;48.154;11.534;2023-11-18T06:41:00;5.50;99.90
15967;DHT22;15175;48.154;11.534;2023-11-18T06:47:04;5.50;99.90
15967;DHT22;15175;48.154;11.534;2023-11-18T06:53:07;5.60;99.90
15967;DHT22;15175;48.154;11.534;2023-11-18T06:59:11;5.60;99.90
15967;DHT22;15175;48.154;11.534;2023-11-18T07:05:14;5.60;99.90
15967;DHT22;15175;48.154;11.534;2023-11-18T07:11:17;5.60;99.90
15967;DHT22;15175;48.154;11.534;2023-11-18T07:17:21;5.70;99.90
15967;DHT22;15175;48.154;11.534;2023-11-18T07:23:23;5.70;99.90
15967;DHT22;15175;48.154;11.534;2023-11-18T07:29:25;5.70;99.90
15967;DHT22;15175;48.154;11.534;2023-11-18T07:35:29;5.80;99.90
15967;DHT22;15175;48.154;11.534;2023-11-18T07:41:32;5.80;99.90
15967;DHT22;15175;48.154;11.534;2023-11-18T07:47:34;5.80;99.90
15967;DHT22;15175;48.154;11.534;2023-11-18T07:53:38;5.90;99.90
15967;DHT22;15175;48.154;11.534;2023-11-18T07:59:40;6.00;99.90
15967;DHT22;15175;48.154;11.534;2023-11-18T08:05:43;6.10;99.90
15967;DHT22;15175;48.154;11.534;2023-11-18T08:11:47;6.10;99.90
15967;DHT22;15175;48.154;11.534;2023-11-18T08:17:50;6.20;99.90
15967;DHT22;15175;48.154;11.534;2023-11-18T08:23:52;6.20;99.90
15967;DHT22;15175;48.154;11.534;2023-11-18T08:29:55;6.40;99.90
15967;DHT22;15175;48.154;11.534;2023-11-18T08:35:57;6.40;99.90
15967;DHT22;15175;48.154;11.534;2023-11-18T08:42:00;6.50;99.90
15967;DHT22;15175;48.154;11.534;2023-11-18T08:48:04;6.60;99.90
15967;DHT22;15175;48.154;11.534;2023-11-18T08:54:08;6.60;99.90
15967;DHT22;15175;48.154;11.534;2023-11-18T09:00:25;6.60;99.90
15967;DHT22;15175;48.154;11.534;2023-11-18T09:06:52;6.80;99.90
15967;DHT22;15175;48.154;11.534;2023-11-18T09:12:55;6.90;99.90
15967;DHT22;15175;48.154;11.534;2023-11-18T09:18:57;6.90;99.90
15967;DHT22;15175;48.154;11.534;2023-11-18T09:25:01;7.00;99.90
15967;DHT22;15175;48.154;11.534;2023-11-18T09:31:09;7.10;99.90
15967;DHT22;15175;48.154;11.534;2023-11-18T09:37:12;7.20;99.90
15967;DHT22;15175;48.154;11.534;2023-11-18T09:43:17;7.30;99.90
15967;DHT22;15175;48.154;11.534;2023-11-18T09:49:26;7.50;99.90
15967;DHT22;15175;48.154;11.534;2023-11-18T09:55:45;7.60;99.90
15967;DHT22;15175;48.154;11.534;2023-11-18T10:01:54;7.70;99.90
15967;DHT22;15175;48.154;11.534;2023-11-18T10:07:58;7.70;99.90
15967;DHT22;15175;48.154;11.534;2023-11-18T10:14:00;7.70;99.90
15967;DHT22;15175;48.154;11.534;2023-11-18T10:20:09;7.70;99.90
15967;DHT22;15175;48.154;11.534;2023-11-18T10:26:16;7.80;99.90
15967;DHT22;15175;48.154;11.534;2023-11-18T10:32:19;7.70;99.90
15967;DHT22;15175;48.154;11.534;2023-11-18T10:38:24;7.80;99.90
15967;DHT22;15175;48.154;11.534;2023-11-18T10:44:27;7.80;99.90
15967;DHT22;15175;48.154;11.534;2023-11-18T10:50:30;7.90;99.90
15967;DHT22;15175;48.154;11.534;2023-11-18T10:56:34;7.90;99.90
15967;DHT22;15175;48.154;11.534;2023-11-18T11:02:39;8.00;99.90
15967;DHT22;15175;48.154;11.534;2023-11-18T11:08:42;8.00;99.90
15967;DHT22;15175;48.154;11.534;2023-11-18T11:14:50;8.00;99.90
15967;DHT22;15175;48.154;11.534;2023-11-18T11:21:01;8.00;99.90
15967;DHT22;15175;48.154;11.534;2023-11-18T11:27:17;7.90;99.90
15967;DHT22;15175;48.154;11.534;2023-11-18T11:33:33;7.90;99.90
15967;DHT22;15175;48.154;11.534;2023-11-18T11:39:43;7.90;99.90
15967;DHT22;15175;48.154;11.534;2023-11-18T11:45:48;8.00;99.90
15967;DHT22;15175;48.154;11.534;2023-11-18T11:51:56;8.00;99.90
15967;DHT22;15175;48.154;11.534;2023-11-18T11:58:01;8.20;99.90
15967;DHT22;15175;48.154;11.534;2023-11-18T12:04:04;8.30;99.90
15967;DHT22;15175;48.154;11.534;2023-11-18T12:10:12;8.30;99.90
15967;DHT22;15175;48.154;11.534;2023-11-18T12:17:00;8.40;99.90
15967;DHT22;15175;48.154;11.534;2023-11-18T12:23:08;8.40;99.90
15967;DHT22;15175;48.154;11.534;2023-11-18T12:29:33;8.50;99.90
15967;DHT22;15175;48.154;11.534;2023-11-18T12:35:43;8.50;99.90
15967;DHT22;15175;48.154;11.534;2023-11-18T12:42:01;8.60;99.90
15967;DHT22;15175;48.154;11.534;2023-11-18T12:48:14;8.60;99.90
15967;DHT22;15175;48.154;11.534;2023-11-18T12:54:17;8.70;99.90
15967;DHT22;15175;48.154;11.534;2023-11-18T13:00:19;8.70;99.90
15967;DHT22;15175;48.154;11.534;2023-11-18T13:06:29;8.80;99.90
15967;DHT22;15175;48.154;11.534;2023-11-18T13:12:32;8.90;99.90
15967;DHT22;15175;48.154;11.534;2023-11-18T13:18:42;9.00;99.90
15967;DHT22;15175;48.154;11.534;2023-11-18T13:24:46;9.00;99.90
15967;DHT22;15175;48.154;11.534;2023-11-18T13:30:50;8.90;99.90
15967;DHT22;15175;48.154;11.534;2023-11-18T13:36:53;8.80;99.90
15967;DHT22;15175;48.154;11.534;2023-11-18T13:43:03;8.70;99.90
15967;DHT22;15175;48.154;11.534;2023-11-18T13:49:09;8.70;99.90
15967;DHT22;15175;48.154;11.534;2023-11-18T13:55:15;8.70;99.90
15967;DHT22;15175;48.154;11.534;2023-11-18T14:01:25;8.70;99.90
15967;DHT22;15175;48.154;11.534;2023-11-18T14:07:28;8.60;99.90
15967;DHT22;15175;48.154;11.534;2023-11-18T14:13:31;8.60;99.90
15967;DHT22;15175;48.154;11.534;2023-11-18T14:19:36;8.60;99.90
15967;DHT22;15175;48.154;11.534;2023-11-18T14:25:39;8.60;99.90
15967;DHT22;15175;48.154;11.534;2023-11-18T14:31:41;8.60;99.90
15967;DHT22;15175;48.154;11.534;2023-11-18T14:37:45;8.60;99.90
15967;DHT22;15175;48.154;11.534;2023-11-18T14:43:47;8.60;99.90
15967;DHT22;15175;48.154;11.534;2023-11-18T14:49:49;8.50;99.90
15967;DHT22;15175;48.154;11.534;2023-11-18T14:55:53;8.40;99.90
15967;DHT22;15175;48.154;11.534;2023-11-18T15:01:55;8.40;99.90
15967;DHT22;15175;48.154;11.534;2023-11-18T15:07:58;8.30;99.90
15967;DHT22;15175;48.154;11.534;2023-11-18T15:14:02;8.20;99.90
15967;DHT22;15175;48.154;11.534;2023-11-18T15:20:06;8.20;99.90
15967;DHT22;15175;48.154;11.534;2023-11-18T15:26:09;8.20;99.90
15967;DHT22;15175;48.154;11.534;2023-11-18T15:32:12;8.10;99.90
15967;DHT22;15175;48.154;11.534;2023-11-18T15:38:15;8.10;99.90
15967;DHT22;15175;48.154;11.534;2023-11-18T15:44:18;8.00;99.90
15967;DHT22;15175;48.154;11.534;2023-11-18T15:50:22;8.10;99.90
15967;DHT22;15175;48.154;11.534;2023-11-18T15:56:24;8.00;99.90
15967;DHT22;15175;48.154;11.534;2023-11-18T16:02:26;8.00;99.90
15967;DHT22;15175;48.154;11.534;2023-11-18T16:08:30;8.00;99.90
15967;DHT22;15175;48.154;11.534;2023-11-18T16:14:33;8.00;99.90
15967;DHT22;15175;48.154;11.534;2023-11-18T16:20:36;8.00;99.90
15967;DHT22;15175;48.154;11.534;2023-11-18T16:26:39;7.90;99.90
15967;DHT22;15175;48.154;11.534;2023-11-18T16:32:42;7.90;99.90
15967;DHT22;15175;48.154;11.534;2023-11-18T16:38:44;7.90;99.90
15967;DHT22;15175;48.154;11.534;2023-11-18T16:44:48;7.80;99.90
15967;DHT22;15175;48.154;11.534;2023-11-18T16:50:49;7.80;99.90
15967;DHT22;15175;48.154;11.534;2023-11-18T16:56:52;7.80;99.90
15967;DHT22;15175;48.154;11.534;2023-11-18T17:02:55;7.70;99.90
15967;DHT22;15175;48.154;11.534;2023-11-18T17:08:58;7.70;99.90
15967;DHT22;15175;48.154;11.534;2023-11-18T17:15:01;7.70;99.90
15967;DHT22;15175;48.154;11.534;2023-11-18T17:21:05;7.80;99.90
15967;DHT22;15175;48.154;11.534;2023-11-18T17:27:09;7.70;99.90
15967;DHT22;15175;48.154;11.534;2023-11-18T17:33:12;7.70;99.90
15967;DHT22;15175;48.154;11.534;2023-11-18T17:39:17;7.60;99.90
15967;DHT22;15175;48.154;11.534;2023-11-18T17:45:19;7.50;99.90
15967;DHT22;15175;48.154;11.534;2023-11-18T17:51:21;7.50;99.90
15967;DHT22;15175;48.154;11.534;2023-11-18T17:57:25;7.50;99.90
15967;DHT22;15175;48.154;11.534;2023-11-18T18:03:27;7.50;99.90
15967;DHT22;15175;48.154;11.534;2023-11-18T18:09:31;7.50;99.90
15967;DHT22;15175;48.154;11.534;2023-11-18T18:15:34;7.50;99.90
15967;DHT22;15175;48.154;11.534;2023-11-18T18:21:36;7.60;99.90
15967;DHT22;15175;48.154;11.534;2023-11-18T18:27:38;7.50;99.90
15967;DHT22;15175;48.154;11.534;2023-11-18T18:33:43;7.50;99.90
15967;DHT22;15175;48.154;11.534;2023-11-18T18:39:45;7.50;99.90
15967;DHT22;15175;48.154;11.534;2023-11-18T18:45:47;7.40;99.90
15967;DHT22;15175;48.154;11.534;2023-11-18T18:51:51;7.40;99.90
15967;DHT22;15175;48.154;11.534;2023-11-18T18:57:53;7.40;99.90
15967;DHT22;15175;48.154;11.534;2023-11-18T19:03:55;7.40;99.90
15967;DHT22;15175;48.154;11.534;2023-11-18T19:09:59;7.30;99.90
15967;DHT22;15175;48.154;11.534;2023-11-18T19:16:01;7.20;99.90
15967;DHT22;15175;48.154;11.534;2023-11-18T19:22:04;7.10;99.90
15967;DHT22;15175;48.154;11.534;2023-11-18T19:28:08;7.10;99.90
15967;DHT22;15175;48.154;11.534;2023-11-18T19:34:11;6.90;99.90
15967;DHT22;15175;48.154;11.534;2023-11-18T19:40:14;6.70;99.90
15967;DHT22;15175;48.154;11.534;2023-11-18T19:46:17;6.60;99.90
15967;DHT22;15175;48.154;11.534;2023-11-18T19:52:21;6.40;99.90
15967;DHT22;15175;48.154;11.534;2023-11-18T19:58:24;6.30;99.90
15967;DHT22;15175;48.154;11.534;2023-11-18T20:04:31;6.10;99.90
15967;DHT22;15175;48.154;11.534;2023-11-18T20:10:34;6.00;99.90
15967;DHT22;15175;48.154;11.534;2023-11-18T20:16:36;5.90;99.90
15967;DHT22;15175;48.154;11.534;2023-11-18T20:22:40;5.80;99.90
15967;DHT22;15175;48.154;11.534;2023-11-18T20:28:42;5.70;99.90
15967;DHT22;15175;48.154;11.534;2023-11-18T20:34:45;5.60;99.90
15967;DHT22;15175;48.154;11.534;2023-11-18T20:40:49;5.60;99.90
15967;DHT22;15175;48.154;11.534;2023-11-18T20:46:51;5.50;99.90
15967;DHT22;15175;48.154;11.534;2023-11-18T20:52:56;5.40;99.90
15967;DHT22;15175;48.154;11.534;2023-11-18T20:59:00;5.40;99.90
15967;DHT22;15175;48.154;11.534;2023-11-18T21:05:03;5.30;99.90
15967;DHT22;15175;48.154;11.534;2023-11-18T21:11:08;5.30;99.90
15967;DHT22;15175;48.154;11.534;2023-11-18T21:17:13;5.20;99.90
15967;DHT22;15175;48.154;11.534;2023-11-18T21:23:15;5.20;99.90
15967;DHT22;15175;48.154;11.534;2023-11-18T21:29:17;5.20;99.90
15967;DHT22;15175;48.154;11.534;2023-11-18T21:35:21;5.20;99.90
15967;DHT22;15175;48.154;11.534;2023-11-18T21:41:23;5.20;99.90
15967;DHT22;15175;48.154;11.534;2023-11-18T21:47:25;5.20;99.90
15967;DHT22;15175;48.154;11.534;2023-11-18T21:53:29;5.10;99.90
15967;DHT22;15175;48.154;11.534;2023-11-18T21:59:31;5.10;99.90
15967;DHT22;15175;48.154;11.534;2023-11-18T22:05:33;5.10;99.90
15967;DHT22;15175;48.154;11.534;2023-11-18T22:11:36;5.10;99.90
15967;DHT22;15175;48.154;11.534;2023-11-18T22:17:38;5.10;99.90
15967;DHT22;15175;48.154;11.534;2023-11-18T22:23:43;5.10;99.90
15967;DHT22;15175;48.154;11.534;2023-11-18T22:29:47;5.10;99.90
15967;DHT22;15175;48.154;11.534;2023-11-18T22:35:50;5.20;99.90
15967;DHT22;15175;48.154;11.534;2023-11-18T22:41:52;5.20;99.90
15967;DHT22;15175;48.154;11.534;2023-11-18T22:47:55;5.30;99.90
15967;DHT22;15175;48.154;11.534;2023-11-18T22:53:57;5.30;99.90
15967;DHT22;15175;48.154;11.534;2023-11-18T23:00:00;5.30;99.90
15967;DHT22;15175;48.154;11.534;2023-11-18T23:06:04;5.30;99.90
15967;DHT22;15175;48.154;11.534;2023-11-18T23:12:08;5.30;99.90
15967;DHT22;15175;48.154;11.534;2023-11-18T23:18:11;5.30;99.90
15967;DHT22;15175;48.154;11.534;2023-11-18T23:24:14;5.30;99.90
15967;DHT22;15175;48.154;11.534;2023-11-18T23:30:16;5.30;99.90
15967;DHT22;15175;48.154;11.534;2023-11-18T23:36:21;5.30;99.90
15967;DHT22;15175;48.154;11.534;2023-11-18T23:42:25;5.30;99.90
15967;DHT22;15175;48.154;11.534;2023-11-18T23:48:27;5.30;99.90
15967;DHT22;15175;48.154;11.534;2023-11-18T23:54:29;5.30;99.90
